createdAt,value
2019-03-20T00:00:13.388Z,100406.92
2019-03-20T00:03:26.926Z,100407.63
2019-03-20T00:06:40.389Z,100401.47
2019-03-20T00:09:53.845Z,100397.19
2019-03-20T00:13:07.528Z,100406.32
2019-03-20T00:16:21.107Z,100404.41
2019-03-20T00:19:34.591Z,100407.72
2019-03-20T00:22:48.049Z,100403.52
2019-03-20T00:26:01.685Z,100405.12
2019-03-20T00:29:15.184Z,100407.28
2019-03-20T00:32:28.743Z,100399.96
2019-03-20T00:35:42.534Z,100402.11
2019-03-20T00:38:56.092Z,100398.64
2019-03-20T00:42:19.384Z,100402.19
2019-03-20T00:45:33.172Z,100400.67
2019-03-20T00:48:46.635Z,100401.77
2019-03-20T00:52:00.114Z,100401.53
2019-03-20T00:55:14.522Z,100395.93
2019-03-20T00:58:28.257Z,100397.98
2019-03-20T01:01:41.990Z,100390.70
2019-03-20T01:04:55.463Z,100381.58
2019-03-20T01:08:08.941Z,100382.96
2019-03-20T01:11:22.452Z,100385.84
2019-03-20T01:14:36.769Z,100386.14
2019-03-20T01:17:50.349Z,100387.16
2019-03-20T01:21:04.225Z,100382.78
2019-03-20T01:24:17.812Z,100375.10
2019-03-20T01:27:31.287Z,100372.61
2019-03-20T01:30:44.766Z,100379.39
2019-03-20T01:33:58.370Z,100365.53
2019-03-20T01:37:11.851Z,100374.83
2019-03-20T01:40:25.451Z,100362.88
2019-03-20T01:43:39.227Z,100367.69
2019-03-20T01:46:52.705Z,100367.21
2019-03-20T01:50:06.571Z,100370.20
2019-03-20T01:53:20.450Z,100372.66
2019-03-20T01:56:34.231Z,100381.36
2019-03-20T01:59:48.025Z,100374.35
2019-03-20T02:03:01.498Z,100376.16
2019-03-20T02:06:14.963Z,100380.77
2019-03-20T02:09:28.437Z,100380.46
2019-03-20T02:12:42.558Z,100385.27
2019-03-20T04:37:58.881Z,100441.91
2019-03-20T04:41:12.467Z,100444.17
2019-03-20T04:44:25.951Z,100437.88
2019-03-20T04:47:39.427Z,100441.33
2019-03-20T04:50:52.920Z,100445.56
2019-03-20T04:54:06.408Z,100445.55
2019-03-20T04:57:20.147Z,100442.48
2019-03-20T05:00:33.843Z,100444.55
2019-03-20T05:03:47.748Z,100456.31
2019-03-20T05:07:01.594Z,100460.56
2019-03-20T05:10:15.093Z,100468.21
2019-03-20T05:13:28.558Z,100464.78
2019-03-20T05:16:42.670Z,100465.58
2019-03-20T05:19:56.138Z,100469.36
2019-03-20T05:23:09.706Z,100472.56
2019-03-20T05:26:23.176Z,100479.89
2019-03-20T05:29:36.741Z,100483.31
2019-03-20T05:32:50.220Z,100488.83
2019-03-20T05:36:03.789Z,100499.80
2019-03-20T05:39:17.453Z,100502.58
2019-03-20T05:42:31.230Z,100505.55
2019-03-20T05:45:44.695Z,100507.84
2019-03-20T05:48:58.203Z,100518.92
2019-03-20T05:52:11.647Z,100521.68
2019-03-20T05:55:25.139Z,100520.19
2019-03-20T05:58:38.605Z,100526.11
2019-03-20T06:01:52.070Z,100528.09
2019-03-20T06:05:06.302Z,100533.35
2019-03-20T06:08:20.066Z,100534.16
2019-03-20T06:11:33.528Z,100538.84
2019-03-20T06:14:47.003Z,100533.91
2019-03-20T06:18:00.467Z,100530.95
2019-03-20T06:21:13.947Z,100540.70
2019-03-20T06:24:27.416Z,100544.59
2019-03-20T06:27:41.235Z,100544.70
2019-03-20T06:30:54.698Z,100547.11
2019-03-20T06:34:08.181Z,100547.33
2019-03-20T06:37:31.973Z,100549.05
2019-03-20T06:40:37.451Z,100557.64
2019-03-20T06:43:51.023Z,100556.27
2019-03-20T06:47:04.607Z,100557.64
2019-03-20T06:50:18.366Z,100563.01
2019-03-20T06:53:31.850Z,100559.81
2019-03-20T06:56:45.305Z,100561.42
2019-03-20T07:00:42.865Z,100564.13
2019-03-20T07:04:06.237Z,100555.66
2019-03-20T07:07:27.056Z,100560.99
2019-03-20T07:11:06.359Z,100554.55
2019-03-20T07:14:19.843Z,100551.25
2019-03-20T07:17:33.333Z,100560.23
2019-03-20T07:20:46.806Z,100555.16
2019-03-20T07:24:00.295Z,100559.47
2019-03-20T07:27:13.871Z,100561.76
2019-03-20T07:30:27.438Z,100561.63
2019-03-20T07:33:40.918Z,100561.72
2019-03-20T07:36:54.529Z,100567.85
2019-03-20T07:40:08.314Z,100566.80
2019-03-20T07:43:21.835Z,100560.11
2019-03-20T07:46:35.624Z,100567.28
2019-03-20T07:49:49.402Z,100557.70
2019-03-20T07:53:03.086Z,100554.73
2019-03-20T07:56:16.545Z,100564.10
2019-03-20T07:59:30.234Z,100557.53
2019-03-20T08:02:44.022Z,100552.92
2019-03-20T08:05:57.652Z,100556.81
2019-03-20T08:09:11.095Z,100551.57
2019-03-20T08:12:24.843Z,100549.92
2019-03-20T08:15:38.476Z,100557.72
2019-03-20T08:18:51.974Z,100560.72
2019-03-20T08:22:05.546Z,100561.88
2019-03-20T08:25:19.148Z,100566.80
2019-03-20T08:28:32.614Z,100566.58
2019-03-20T08:31:46.335Z,100567.25
2019-03-20T08:35:00.122Z,100572.47
2019-03-20T08:38:18.078Z,100570.72
2019-03-20T08:41:29.146Z,100561.98
2019-03-20T08:44:42.600Z,100563.77
2019-03-20T08:47:56.384Z,100562.23
2019-03-20T08:51:09.965Z,100566.55
2019-03-20T08:54:23.479Z,100564.05
2019-03-20T08:57:36.943Z,100561.89
2019-03-20T09:00:50.662Z,100562.98
2019-03-20T09:04:04.220Z,100566.59
2019-03-20T09:07:17.685Z,100568.35
2019-03-20T09:10:31.145Z,100563.38
2019-03-20T09:13:44.639Z,100577.09
2019-03-20T09:16:58.116Z,100565.09
2019-03-20T09:20:12.827Z,100566.65
2019-03-20T09:23:26.531Z,100566.36
2019-03-20T09:26:39.999Z,100564.42
2019-03-20T09:29:53.720Z,100556.70
2019-03-20T09:33:07.226Z,100557.11
2019-03-20T09:36:20.793Z,100559.19
2019-03-20T09:39:34.358Z,100551.50
2019-03-20T09:42:48.214Z,100559.39
2019-03-20T09:46:01.671Z,100557.05
2019-03-20T09:49:15.542Z,100554.20
2019-03-20T09:52:29.096Z,100556.41
2019-03-20T09:55:42.649Z,100553.01
2019-03-20T09:58:56.267Z,100549.23
2019-03-20T10:02:10.315Z,100551.77
2019-03-20T10:05:24.602Z,100549.63
2019-03-20T10:08:38.249Z,100554.89
2019-03-20T10:11:51.733Z,100555.80
2019-03-20T10:15:07.241Z,100562.27
2019-03-20T10:18:20.973Z,100559.58
2019-03-20T10:21:34.710Z,100558.38
2019-03-20T10:24:48.188Z,100551.72
2019-03-20T10:28:02.500Z,100551.27
2019-03-20T10:31:16.190Z,100552.52
2019-03-20T10:34:39.225Z,100556.56
2019-03-20T10:37:46.173Z,100556.80
2019-03-20T10:40:59.630Z,100557.91
2019-03-20T10:44:13.112Z,100562.08
2019-03-20T10:47:26.708Z,100553.40
2019-03-20T10:50:40.188Z,100553.67
2019-03-20T10:53:53.657Z,100554.92
2019-03-20T10:57:07.147Z,100551.52
2019-03-20T11:00:21.079Z,100540.27
2019-03-20T11:03:34.640Z,100540.34
2019-03-20T11:06:48.104Z,100538.70
2019-03-20T11:10:02.013Z,100535.81
2019-03-20T11:13:15.472Z,100542.75
2019-03-20T11:16:29.042Z,100537.57
2019-03-20T11:19:42.527Z,100526.97
2019-03-20T11:22:55.990Z,100546.44
2019-03-20T11:26:09.791Z,100536.21
2019-03-20T11:29:23.271Z,100532.09
2019-03-20T11:32:36.739Z,100530.80
2019-03-20T11:35:50.776Z,100528.91
2019-03-20T11:39:07.993Z,100527.94
2019-03-20T11:42:21.743Z,100533.36
2019-03-20T11:45:35.323Z,100528.70
2019-03-20T11:48:48.812Z,100534.05
2019-03-20T11:52:02.624Z,100524.73
2019-03-20T11:55:16.200Z,100514.87
2019-03-20T11:58:29.930Z,100521.17
2019-03-20T12:01:43.517Z,100517.83
2019-03-20T12:04:56.995Z,100510.88
2019-03-20T12:08:10.463Z,100498.58
2019-03-20T12:11:23.957Z,100506.16
2019-03-20T12:14:37.431Z,100500.44
2019-03-20T12:17:50.941Z,100493.20
2019-03-20T12:21:04.629Z,100489.98
2019-03-20T12:24:18.204Z,100479.52
2019-03-20T12:27:31.793Z,100479.16
2019-03-20T12:30:45.280Z,100475.54
2019-03-20T12:33:58.779Z,100475.75
2019-03-20T12:37:12.281Z,100472.86
2019-03-20T12:40:27.325Z,100470.61
2019-03-20T12:43:41.324Z,100466.88
2019-03-20T12:46:54.950Z,100471.98
2019-03-20T12:50:09.107Z,100472.64
2019-03-20T12:53:25.615Z,100463.66
2019-03-20T12:56:39.092Z,100462.47
2019-03-20T12:59:52.559Z,100461.67
2019-03-20T13:03:06.438Z,100459.48
2019-03-20T13:06:19.919Z,100456.10
2019-03-20T13:09:33.443Z,100452.20
2019-03-20T13:12:47.224Z,100453.48
2019-03-20T13:16:00.707Z,100457.45
2019-03-20T13:19:14.184Z,100447.87
2019-03-20T13:22:28.038Z,100446.39
2019-03-20T13:25:41.614Z,100439.97
2019-03-20T13:28:55.105Z,100439.59
2019-03-20T13:32:08.588Z,100433.08
2019-03-20T13:35:22.062Z,100436.77
2019-03-20T13:38:35.547Z,100444.20
2019-03-20T13:41:49.291Z,100430.88
2019-03-20T13:45:03.458Z,100433.25
2019-03-20T13:48:16.945Z,100435.58
2019-03-20T13:51:30.561Z,100443.41
2019-03-20T13:54:44.270Z,100442.72
2019-03-20T13:57:57.752Z,100448.20
2019-03-20T14:01:11.220Z,100445.44
2019-03-20T14:04:25.006Z,100437.86
2019-03-20T14:07:38.483Z,100436.22
2019-03-20T14:10:52.079Z,100429.30
2019-03-20T14:14:05.842Z,100434.53
2019-03-20T14:17:19.423Z,100427.09
2019-03-20T14:20:32.922Z,100424.40
2019-03-20T14:23:46.435Z,100417.21
2019-03-20T14:27:00.446Z,100425.19
2019-03-20T14:30:16.487Z,100427.73
2019-03-20T14:33:30.007Z,100429.57
2019-03-20T14:36:43.694Z,100426.82
2019-03-20T14:39:57.191Z,100424.45
2019-03-20T14:43:11.392Z,100420.09
2019-03-20T14:46:25.376Z,100421.34
2019-03-20T14:49:38.907Z,100432.16
2019-03-20T14:52:52.595Z,100436.21
2019-03-20T14:56:06.093Z,100430.26
2019-03-20T14:59:19.859Z,100429.70
2019-03-20T15:02:33.337Z,100431.84
2019-03-20T15:05:46.918Z,100424.19
2019-03-20T15:09:00.677Z,100425.75
2019-03-20T15:12:14.256Z,100424.09
2019-03-20T15:15:36.742Z,100426.57
2019-03-20T15:18:50.494Z,100423.52
2019-03-20T15:22:04.065Z,100431.14
2019-03-20T15:25:17.655Z,100436.60
2019-03-20T15:28:31.153Z,100438.45
2019-03-20T15:31:44.645Z,100425.75
2019-03-20T15:34:58.738Z,100432.80
2019-03-20T15:38:12.347Z,100426.42
2019-03-20T15:41:26.151Z,100441.39
2019-03-20T15:44:39.904Z,100438.69
2019-03-20T15:47:53.557Z,100448.06
2019-03-20T15:51:07.093Z,100447.89
2019-03-20T15:54:20.860Z,100425.62
2019-03-20T15:57:34.398Z,100427.05
2019-03-20T16:00:47.911Z,100432.67
2019-03-20T16:04:02.689Z,100447.28
2019-03-20T16:07:16.662Z,100430.22
2019-03-20T16:10:30.408Z,100435.78
2019-03-20T16:13:44.028Z,100433.68
2019-03-20T16:16:57.827Z,100438.16
2019-03-20T16:20:11.980Z,100450.67
2019-03-20T16:23:25.471Z,100450.36
2019-03-20T16:26:39.047Z,100443.30
2019-03-20T16:29:52.524Z,100447.83
2019-03-20T16:33:05.986Z,100449.45
2019-03-20T16:36:19.492Z,100448.88
2019-03-20T16:39:32.976Z,100448.43
2019-03-20T16:42:46.669Z,100445.95
2019-03-20T16:46:00.514Z,100449.70
2019-03-20T16:49:13.993Z,100445.69
2019-03-20T16:52:27.476Z,100450.44
2019-03-20T16:55:40.968Z,100443.92
2019-03-20T16:58:54.427Z,100447.98
2019-03-20T17:02:08.172Z,100447.83
2019-03-20T17:05:22.071Z,100443.52
2019-03-20T17:08:35.683Z,100449.70
2019-03-20T17:11:49.188Z,100449.10
2019-03-20T17:15:05.140Z,100446.67
2019-03-20T17:18:18.675Z,100444.94
2019-03-20T17:21:32.186Z,100447.22
2019-03-20T17:24:45.736Z,100451.63
2019-03-20T17:27:59.399Z,100458.63
2019-03-20T17:31:13.216Z,100455.84
2019-03-20T17:34:26.686Z,100467.24
2019-03-20T17:37:40.825Z,100467.41
2019-03-20T17:40:54.351Z,100467.52
2019-03-20T17:44:30.342Z,100475.97
2019-03-20T17:47:44.340Z,100484.81
2019-03-20T17:50:57.827Z,100488.37
2019-03-20T17:54:11.387Z,100493.23
2019-03-20T17:57:25.136Z,100492.96
2019-03-20T18:00:40.943Z,100487.52
2019-03-20T18:03:54.529Z,100493.86
2019-03-20T18:07:08.134Z,100497.97
2019-03-20T18:10:21.856Z,100504.30
2019-03-20T18:13:36.178Z,100501.66
2019-03-20T18:16:49.658Z,100497.27
2019-03-20T18:20:03.867Z,100501.81
2019-03-20T18:23:17.347Z,100507.61
2019-03-20T18:26:31.278Z,100512.94
2019-03-20T18:29:44.798Z,100515.68
2019-03-20T18:32:58.474Z,100509.34
2019-03-20T18:36:12.032Z,100516.52
2019-03-20T18:39:25.509Z,100517.45
2019-03-20T18:42:39.087Z,100532.80
2019-03-20T18:45:52.555Z,100536.63
2019-03-20T18:49:06.340Z,100539.00
2019-03-20T18:52:19.808Z,100537.15
2019-03-20T18:55:33.526Z,100532.59
2019-03-20T18:58:47.026Z,100543.65
2019-03-20T19:02:00.482Z,100542.05
2019-03-20T19:05:16.966Z,100546.42
2019-03-20T19:08:30.570Z,100546.33
2019-03-20T19:11:44.240Z,100549.55
2019-03-20T19:14:57.726Z,100547.70
2019-03-20T19:18:11.689Z,100556.13
2019-03-20T19:21:25.151Z,100556.80
2019-03-20T19:24:38.633Z,100565.39
2019-03-20T19:27:52.427Z,100570.78
2019-03-20T19:31:05.897Z,100571.12
2019-03-20T19:34:19.452Z,100568.45
2019-03-20T19:37:33.167Z,100567.68
2019-03-20T19:40:46.636Z,100570.61
2019-03-20T19:44:00.743Z,100568.30
2019-03-20T19:47:14.203Z,100579.43
2019-03-20T19:50:27.703Z,100581.70
2019-03-20T19:53:41.170Z,100576.45
2019-03-20T19:56:54.662Z,100582.82
2019-03-20T20:00:12.138Z,100583.86
2019-03-20T20:03:25.640Z,100588.03
2019-03-20T20:06:39.137Z,100595.48
2019-03-20T20:09:52.604Z,100596.84
2019-03-20T20:13:06.086Z,100597.10
2019-03-20T20:16:19.570Z,100603.00
2019-03-20T20:19:33.056Z,100609.71
2019-03-20T20:22:47.008Z,100615.55
2019-03-20T20:26:00.498Z,100613.26
2019-03-20T20:29:13.956Z,100605.79
2019-03-20T20:32:27.430Z,100610.47
2019-03-20T20:35:41.306Z,100615.77
2019-03-20T20:38:54.994Z,100622.03
2019-03-20T20:42:08.454Z,100623.07
2019-03-20T20:45:22.148Z,100624.20
2019-03-20T20:48:35.617Z,100617.03
2019-03-20T20:51:49.107Z,100619.17
2019-03-20T20:55:03.741Z,100624.17
2019-03-20T20:58:17.532Z,100620.33
2019-03-20T21:01:31.011Z,100629.06
2019-03-20T21:04:44.477Z,100623.69
2019-03-20T21:07:57.935Z,100618.34
2019-03-20T21:11:11.710Z,100627.36
2019-03-20T21:14:25.174Z,100622.24
2019-03-20T21:17:48.046Z,100625.41
2019-03-20T21:21:02.560Z,100632.02
2019-03-20T21:24:22.803Z,100624.99
2019-03-20T21:28:28.836Z,100629.07
2019-03-20T21:31:49.618Z,100626.89
2019-03-20T21:36:12.830Z,100620.81
2019-03-20T21:39:26.821Z,100623.41
2019-03-20T21:43:24.530Z,100627.77
2019-03-20T21:47:23.532Z,100622.44
2019-03-20T21:51:11.776Z,100627.34
2019-03-20T21:55:03.168Z,100633.19
2019-03-20T21:58:31.545Z,100627.58
2019-03-20T22:02:35.989Z,100628.51
2019-03-20T22:06:31.494Z,100625.18
2019-03-20T22:10:36.329Z,100628.97
2019-03-20T22:14:00.909Z,100634.66
2019-03-20T22:17:55.804Z,100633.72
2019-03-20T22:21:42.825Z,100638.06
2019-03-20T22:25:18.193Z,100638.70
2019-03-20T22:28:58.140Z,100639.12
2019-03-20T22:32:49.894Z,100640.01
2019-03-20T22:36:28.219Z,100640.14
2019-03-20T22:40:33.033Z,100642.02
2019-03-20T22:43:59.635Z,100642.53
2019-03-20T22:48:13.708Z,100637.48
2019-03-20T22:52:00.770Z,100635.75
2019-03-20T22:55:36.467Z,100637.02
2019-03-20T22:58:50.722Z,100628.80
2019-03-20T23:02:29.340Z,100638.08
2019-03-20T23:05:43.626Z,100631.75
2019-03-20T23:08:57.620Z,100631.20
2019-03-20T23:12:13.259Z,100629.20
2019-03-20T23:15:27.312Z,100630.23
2019-03-20T23:18:41.437Z,100630.82
2019-03-20T23:21:55.742Z,100629.81
2019-03-20T23:25:10.136Z,100620.92
2019-03-20T23:28:24.167Z,100620.86
2019-03-20T23:31:38.267Z,100616.54
2019-03-20T23:34:52.499Z,100620.16
2019-03-20T23:38:06.501Z,100618.89
2019-03-20T23:41:20.714Z,100621.53
2019-03-20T23:44:34.718Z,100621.42
2019-03-20T23:48:08.509Z,100625.47
2019-03-20T23:51:23.315Z,100626.66
2019-03-20T23:54:46.395Z,100622.59
2019-03-20T23:58:00.529Z,100626.97
